createdAt,value
2018-03-22T01:18:02.307Z,11.43
2018-03-22T01:29:20.189Z,13.97
2018-03-22T01:31:47.738Z,12.13
2018-03-22T01:34:17.364Z,13.20
2018-03-22T01:36:44.896Z,13.87
2018-03-22T01:39:12.424Z,13.87
2018-03-22T01:41:39.966Z,15.47
2018-03-22T01:44:08.277Z,13.93
2018-03-22T01:46:35.863Z,13.50
2018-03-22T01:49:03.413Z,14.97
2018-03-22T01:51:31.159Z,14.40
2018-03-22T01:53:58.701Z,14.23
2018-03-22T01:56:26.654Z,14.57
2018-03-22T01:58:54.212Z,14.17
2018-03-22T02:01:22.515Z,14.33
2018-03-22T02:03:50.469Z,14.33
2018-03-22T02:06:18.021Z,13.63
2018-03-22T02:08:46.337Z,13.20
2018-03-22T02:11:13.877Z,13.30
2018-03-22T03:20:31.203Z,16.35
2018-03-22T05:24:05.920Z,28.87
2018-03-22T05:26:33.451Z,27.27
2018-03-22T05:29:00.988Z,27.85
2018-03-22T05:31:28.538Z,29.95
2018-03-22T05:33:56.091Z,29.85
2018-03-22T05:36:23.642Z,28.50
2018-03-22T05:38:51.203Z,30.02
2018-03-22T05:41:18.762Z,28.83
2018-03-22T05:43:46.332Z,27.35
2018-03-22T05:46:13.887Z,28.90
2018-03-22T05:48:41.434Z,26.85
2018-03-22T05:51:09.030Z,27.73
2018-03-22T05:53:36.574Z,27.70
2018-03-22T05:56:04.114Z,27.30
2018-03-22T05:58:31.652Z,27.20
2018-03-22T06:00:59.952Z,25.10
2018-03-22T06:03:27.578Z,25.08
2018-03-22T06:05:55.890Z,26.27
2018-03-22T06:08:23.462Z,25.80
2018-03-22T06:10:51.036Z,26.20
2018-03-22T06:13:18.584Z,24.27
2018-03-22T06:15:46.124Z,24.37
2018-03-22T06:21:27.417Z,25.80
2018-03-22T07:12:45.965Z,21.50
2018-03-22T07:21:17.202Z,21.87
2018-03-22T08:21:16.283Z,28.97
2018-03-22T09:12:44.868Z,26.93
2018-03-22T09:18:14.953Z,26.87
2018-03-22T09:20:43.361Z,27.67
2018-03-22T10:17:54.662Z,13.93
2018-03-22T11:12:13.586Z,10.13
2018-03-22T11:20:45.906Z,8.40
2018-03-22T12:21:11.897Z,9.40
2018-03-22T13:18:16.696Z,11.00
2018-03-22T14:12:47.351Z,6.03
2018-03-22T14:21:11.049Z,5.97
2018-03-22T15:24:00.231Z,12.07
2018-03-22T15:26:29.261Z,11.60
2018-03-22T15:28:56.810Z,11.57
2018-03-22T15:31:24.366Z,12.20
2018-03-22T15:33:51.905Z,11.63
2018-03-22T15:36:20.207Z,12.10
2018-03-22T15:38:47.756Z,11.50
2018-03-22T15:41:16.061Z,11.77
2018-03-22T15:43:43.649Z,10.23
2018-03-22T15:46:11.192Z,10.43
2018-03-22T15:48:38.847Z,12.13
2018-03-22T15:51:06.405Z,11.03
2018-03-22T15:53:33.965Z,10.93
2018-03-22T15:56:01.501Z,11.70
2018-03-22T15:58:29.073Z,11.00
2018-03-22T16:00:56.615Z,12.33
2018-03-22T16:03:24.933Z,11.20
2018-03-22T16:05:52.480Z,10.07
2018-03-22T16:08:20.032Z,10.50
2018-03-22T16:10:47.582Z,11.40
2018-03-22T16:13:27.613Z,11.77
2018-03-22T16:15:55.934Z,11.17
2018-03-22T16:18:30.960Z,11.53
2018-03-22T17:21:46.690Z,10.93
2018-03-22T17:24:14.261Z,10.63
2018-03-22T17:26:42.720Z,10.70
2018-03-22T17:29:10.318Z,10.53
2018-03-22T17:31:37.969Z,11.53
2018-03-22T17:34:05.565Z,10.70
2018-03-22T17:36:33.896Z,11.13
2018-03-22T17:39:01.622Z,10.70
2018-03-22T17:41:29.273Z,11.63
2018-03-22T17:43:57.579Z,10.97
2018-03-22T17:46:25.109Z,11.07
2018-03-22T17:48:53.418Z,11.07
2018-03-22T17:51:20.964Z,10.23
2018-03-22T17:53:48.515Z,10.40
2018-03-22T17:56:16.321Z,11.43
2018-03-22T17:58:43.871Z,11.30
2018-03-22T18:01:11.474Z,11.67
2018-03-22T18:03:39.036Z,11.63
2018-03-22T18:06:06.605Z,11.03
2018-03-22T18:08:34.925Z,10.60
2018-03-22T18:11:02.469Z,11.30
2018-03-22T19:13:54.584Z,10.63
2018-03-22T19:19:26.944Z,11.20
2018-03-22T19:22:15.179Z,11.93
2018-03-22T20:13:19.411Z,11.83
2018-03-22T20:15:46.996Z,12.37
2018-03-22T20:18:37.997Z,13.30
2018-03-22T20:33:06.538Z,12.13
2018-03-22T20:35:34.079Z,11.47
2018-03-22T20:38:02.396Z,10.93
2018-03-22T20:40:29.924Z,11.60
2018-03-22T20:42:58.233Z,10.53
2018-03-22T20:45:25.775Z,10.43
2018-03-22T20:47:53.319Z,11.37
2018-03-22T20:50:22.173Z,11.53
2018-03-22T20:52:49.731Z,11.47
2018-03-22T20:55:18.213Z,10.73
2018-03-22T20:57:45.762Z,11.37
2018-03-22T21:00:13.333Z,12.10
2018-03-22T21:02:40.880Z,12.03
2018-03-22T21:05:08.434Z,12.23
2018-03-22T21:07:36.038Z,11.73
2018-03-22T21:10:03.568Z,11.07
2018-03-22T21:12:31.153Z,12.13
2018-03-22T21:14:58.705Z,12.27
2018-03-22T21:17:26.286Z,11.60
2018-03-22T21:19:54.620Z,12.83
2018-03-22T21:25:16.249Z,11.80
2018-03-22T21:27:43.896Z,12.40
2018-03-22T21:30:11.477Z,11.33
2018-03-22T21:32:39.112Z,13.20
2018-03-22T21:35:06.750Z,11.93
2018-03-22T21:37:35.084Z,13.40
2018-03-22T21:40:02.652Z,13.27
2018-03-22T21:42:30.181Z,13.70
2018-03-22T21:44:57.738Z,12.87
2018-03-22T21:47:30.730Z,13.73
2018-03-22T21:49:58.493Z,13.73
2018-03-22T21:52:37.858Z,13.63
2018-03-22T21:55:06.034Z,13.97
2018-03-22T21:57:33.592Z,14.40
2018-03-22T22:00:01.124Z,13.67
2018-03-22T22:02:28.708Z,13.93
2018-03-22T22:04:56.347Z,14.10
2018-03-22T22:07:24.848Z,14.40
2018-03-22T22:09:52.403Z,13.83
2018-03-22T22:12:19.948Z,15.53
2018-03-22T22:17:40.822Z,14.60
2018-03-22T22:20:14.957Z,14.30
2018-03-22T22:23:06.797Z,15.07
2018-03-22T22:25:39.020Z,14.17
2018-03-22T22:28:06.568Z,15.30
2018-03-22T22:30:34.120Z,14.20
2018-03-22T22:33:01.678Z,15.27
2018-03-22T22:35:29.216Z,15.53
2018-03-22T22:37:56.776Z,14.87
2018-03-22T22:40:24.314Z,15.27
2018-03-22T22:42:52.684Z,15.17
2018-03-22T22:45:20.229Z,15.50
2018-03-22T22:47:47.893Z,15.30
2018-03-22T22:50:15.489Z,14.17
2018-03-22T22:52:43.803Z,14.17
2018-03-22T22:55:11.344Z,14.17
2018-03-22T22:57:38.903Z,14.60
2018-03-22T23:00:06.479Z,14.33
2018-03-22T23:02:34.010Z,14.13
2018-03-22T23:05:02.317Z,14.80
2018-03-22T23:07:29.870Z,14.97
2018-03-22T23:09:57.415Z,15.53
2018-03-22T23:12:24.959Z,14.60
2018-03-22T23:17:55.713Z,14.73
